sensor_id;sensor_type;location;lat;lon;timestamp;P1;durP1;ratioP1;P2;durP2;ratioP2
25549;SDS011;13444;50.562;7.262;2023-12-28T00:02:04;5.90;;;2.33;;
25549;SDS011;13444;50.562;7.262;2023-12-28T00:04:29;5.57;;;2.55;;
25549;SDS011;13444;50.562;7.262;2023-12-28T00:06:55;4.72;;;2.55;;
25549;SDS011;13444;50.562;7.262;2023-12-28T00:09:20;4.25;;;2.58;;
25549;SDS011;13444;50.562;7.262;2023-12-28T00:11:46;4.30;;;2.50;;
25549;SDS011;13444;50.562;7.262;2023-12-28T00:14:11;5.47;;;2.38;;
25549;SDS011;13444;50.562;7.262;2023-12-28T00:16:37;4.25;;;2.08;;
25549;SDS011;13444;50.562;7.262;2023-12-28T00:19:22;5.25;;;2.60;;
25549;SDS011;13444;50.562;7.262;2023-12-28T00:22:08;6.53;;;3.10;;
25549;SDS011;13444;50.562;7.262;2023-12-28T00:24:53;6.13;;;2.45;;
25549;SDS011;13444;50.562;7.262;2023-12-28T00:27:39;4.60;;;2.75;;
25549;SDS011;13444;50.562;7.262;2023-12-28T00:30:24;3.92;;;2.28;;
25549;SDS011;13444;50.562;7.262;2023-12-28T00:33:10;4.10;;;2.22;;
25549;SDS011;13444;50.562;7.262;2023-12-28T00:35:35;3.05;;;1.98;;
25549;SDS011;13444;50.562;7.262;2023-12-28T00:38:01;6.28;;;2.22;;
25549;SDS011;13444;50.562;7.262;2023-12-28T00:40:27;5.05;;;2.38;;
25549;SDS011;13444;50.562;7.262;2023-12-28T00:42:52;4.90;;;2.45;;
25549;SDS011;13444;50.562;7.262;2023-12-28T00:45:18;4.05;;;2.35;;
25549;SDS011;13444;50.562;7.262;2023-12-28T00:47:43;4.85;;;2.38;;
25549;SDS011;13444;50.562;7.262;2023-12-28T00:50:09;3.80;;;2.58;;
25549;SDS011;13444;50.562;7.262;2023-12-28T00:52:40;2.88;;;2.10;;
25549;SDS011;13444;50.562;7.262;2023-12-28T00:55:05;3.65;;;1.88;;
25549;SDS011;13444;50.562;7.262;2023-12-28T00:57:32;4.40;;;2.30;;
25549;SDS011;13444;50.562;7.262;2023-12-28T00:59:58;5.55;;;2.72;;
25549;SDS011;13444;50.562;7.262;2023-12-28T01:02:24;3.20;;;2.10;;
25549;SDS011;13444;50.562;7.262;2023-12-28T01:04:49;3.67;;;2.00;;
25549;SDS011;13444;50.562;7.262;2023-12-28T01:07:15;5.10;;;2.30;;
25549;SDS011;13444;50.562;7.262;2023-12-28T01:09:40;6.00;;;2.33;;
25549;SDS011;13444;50.562;7.262;2023-12-28T01:12:06;2.55;;;2.05;;
25549;SDS011;13444;50.562;7.262;2023-12-28T01:14:31;3.70;;;2.20;;
25549;SDS011;13444;50.562;7.262;2023-12-28T01:16:57;5.40;;;2.15;;
25549;SDS011;13444;50.562;7.262;2023-12-28T01:19:23;4.32;;;2.38;;
25549;SDS011;13444;50.562;7.262;2023-12-28T01:21:49;4.80;;;2.13;;
25549;SDS011;13444;50.562;7.262;2023-12-28T01:24:14;4.25;;;2.17;;
25549;SDS011;13444;50.562;7.262;2023-12-28T01:26:40;3.42;;;2.13;;
25549;SDS011;13444;50.562;7.262;2023-12-28T01:29:05;3.45;;;1.75;;
25549;SDS011;13444;50.562;7.262;2023-12-28T01:31:31;3.65;;;2.30;;
25549;SDS011;13444;50.562;7.262;2023-12-28T01:33:56;3.83;;;2.20;;
25549;SDS011;13444;50.562;7.262;2023-12-28T01:36:22;3.63;;;2.33;;
25549;SDS011;13444;50.562;7.262;2023-12-28T01:38:48;4.25;;;2.38;;
25549;SDS011;13444;50.562;7.262;2023-12-28T01:41:13;4.85;;;2.22;;
25549;SDS011;13444;50.562;7.262;2023-12-28T01:43:40;2.42;;;2.00;;
25549;SDS011;13444;50.562;7.262;2023-12-28T01:46:07;3.28;;;1.90;;
25549;SDS011;13444;50.562;7.262;2023-12-28T01:48:38;2.63;;;2.13;;
25549;SDS011;13444;50.562;7.262;2023-12-28T01:51:04;2.45;;;1.80;;
25549;SDS011;13444;50.562;7.262;2023-12-28T01:53:30;5.72;;;2.08;;
25549;SDS011;13444;50.562;7.262;2023-12-28T01:55:56;3.10;;;1.60;;
25549;SDS011;13444;50.562;7.262;2023-12-28T01:58:22;3.28;;;2.03;;
25549;SDS011;13444;50.562;7.262;2023-12-28T02:00:49;3.92;;;1.50;;
25549;SDS011;13444;50.562;7.262;2023-12-28T02:03:15;3.65;;;1.85;;
25549;SDS011;13444;50.562;7.262;2023-12-28T02:05:41;2.00;;;1.33;;
25549;SDS011;13444;50.562;7.262;2023-12-28T02:08:06;2.20;;;1.70;;
25549;SDS011;13444;50.562;7.262;2023-12-28T02:10:32;2.83;;;1.67;;
25549;SDS011;13444;50.562;7.262;2023-12-28T02:12:57;2.78;;;1.75;;
25549;SDS011;13444;50.562;7.262;2023-12-28T02:15:23;4.85;;;2.17;;
25549;SDS011;13444;50.562;7.262;2023-12-28T02:17:55;3.72;;;1.50;;
25549;SDS011;13444;50.562;7.262;2023-12-28T02:20:42;3.08;;;1.67;;
25549;SDS011;13444;50.562;7.262;2023-12-28T02:23:09;2.97;;;1.98;;
25549;SDS011;13444;50.562;7.262;2023-12-28T02:25:35;2.35;;;1.65;;
25549;SDS011;13444;50.562;7.262;2023-12-28T02:28:01;5.13;;;2.13;;
25549;SDS011;13444;50.562;7.262;2023-12-28T02:30:27;3.67;;;2.13;;
25549;SDS011;13444;50.562;7.262;2023-12-28T02:35:32;4.18;;;1.95;;
25549;SDS011;13444;50.562;7.262;2023-12-28T02:38:14;3.10;;;2.35;;
25549;SDS011;13444;50.562;7.262;2023-12-28T02:40:41;2.92;;;1.80;;
25549;SDS011;13444;50.562;7.262;2023-12-28T02:43:11;4.90;;;1.95;;
25549;SDS011;13444;50.562;7.262;2023-12-28T02:45:37;3.83;;;1.98;;
25549;SDS011;13444;50.562;7.262;2023-12-28T02:48:05;3.88;;;2.10;;
25549;SDS011;13444;50.562;7.262;2023-12-28T02:50:31;4.10;;;2.15;;
25549;SDS011;13444;50.562;7.262;2023-12-28T02:52:58;3.05;;;2.08;;
25549;SDS011;13444;50.562;7.262;2023-12-28T02:55:24;4.10;;;1.80;;
25549;SDS011;13444;50.562;7.262;2023-12-28T02:57:50;4.03;;;2.08;;
25549;SDS011;13444;50.562;7.262;2023-12-28T03:00:17;6.18;;;2.03;;
25549;SDS011;13444;50.562;7.262;2023-12-28T03:02:42;4.45;;;2.10;;
25549;SDS011;13444;50.562;7.262;2023-12-28T03:05:08;3.20;;;2.20;;
25549;SDS011;13444;50.562;7.262;2023-12-28T03:07:34;3.30;;;2.22;;
25549;SDS011;13444;50.562;7.262;2023-12-28T03:10:00;4.28;;;2.08;;
25549;SDS011;13444;50.562;7.262;2023-12-28T03:12:27;2.20;;;1.90;;
25549;SDS011;13444;50.562;7.262;2023-12-28T03:14:54;3.90;;;2.55;;
25549;SDS011;13444;50.562;7.262;2023-12-28T03:17:19;4.07;;;2.50;;
25549;SDS011;13444;50.562;7.262;2023-12-28T03:19:45;3.05;;;2.10;;
25549;SDS011;13444;50.562;7.262;2023-12-28T03:22:11;3.47;;;2.13;;
25549;SDS011;13444;50.562;7.262;2023-12-28T03:24:37;3.13;;;2.10;;
25549;SDS011;13444;50.562;7.262;2023-12-28T03:27:03;4.32;;;2.30;;
25549;SDS011;13444;50.562;7.262;2023-12-28T03:29:29;2.97;;;1.85;;
25549;SDS011;13444;50.562;7.262;2023-12-28T03:31:55;2.78;;;1.92;;
25549;SDS011;13444;50.562;7.262;2023-12-28T03:34:20;2.10;;;1.80;;
25549;SDS011;13444;50.562;7.262;2023-12-28T03:36:47;3.00;;;1.75;;
25549;SDS011;13444;50.562;7.262;2023-12-28T03:39:13;2.30;;;1.85;;
25549;SDS011;13444;50.562;7.262;2023-12-28T03:41:39;4.68;;;1.95;;
25549;SDS011;13444;50.562;7.262;2023-12-28T03:44:04;1.98;;;1.60;;
25549;SDS011;13444;50.562;7.262;2023-12-28T03:46:30;2.72;;;1.90;;
25549;SDS011;13444;50.562;7.262;2023-12-28T03:48:55;4.88;;;2.15;;
25549;SDS011;13444;50.562;7.262;2023-12-28T03:51:21;2.60;;;1.90;;
25549;SDS011;13444;50.562;7.262;2023-12-28T03:53:46;3.50;;;1.92;;
25549;SDS011;13444;50.562;7.262;2023-12-28T03:56:24;3.47;;;1.80;;
25549;SDS011;13444;50.562;7.262;2023-12-28T03:58:51;3.63;;;1.67;;
25549;SDS011;13444;50.562;7.262;2023-12-28T04:01:17;2.47;;;1.67;;
25549;SDS011;13444;50.562;7.262;2023-12-28T04:03:44;3.05;;;1.75;;
25549;SDS011;13444;50.562;7.262;2023-12-28T04:06:10;2.95;;;1.60;;
25549;SDS011;13444;50.562;7.262;2023-12-28T04:08:35;4.40;;;1.80;;
25549;SDS011;13444;50.562;7.262;2023-12-28T04:11:01;3.33;;;1.92;;
25549;SDS011;13444;50.562;7.262;2023-12-28T04:13:26;2.65;;;2.03;;
25549;SDS011;13444;50.562;7.262;2023-12-28T04:15:52;2.40;;;2.15;;
25549;SDS011;13444;50.562;7.262;2023-12-28T04:18:17;3.13;;;2.25;;
25549;SDS011;13444;50.562;7.262;2023-12-28T04:20:43;5.32;;;2.05;;
25549;SDS011;13444;50.562;7.262;2023-12-28T04:23:09;3.40;;;1.90;;
25549;SDS011;13444;50.562;7.262;2023-12-28T04:25:35;2.60;;;1.83;;
25549;SDS011;13444;50.562;7.262;2023-12-28T04:28:01;5.55;;;2.47;;
25549;SDS011;13444;50.562;7.262;2023-12-28T04:30:27;3.55;;;2.20;;
25549;SDS011;13444;50.562;7.262;2023-12-28T04:32:53;3.10;;;1.63;;
25549;SDS011;13444;50.562;7.262;2023-12-28T04:35:19;5.43;;;1.88;;
25549;SDS011;13444;50.562;7.262;2023-12-28T04:37:44;4.32;;;2.00;;
25549;SDS011;13444;50.562;7.262;2023-12-28T04:40:10;3.88;;;2.10;;
25549;SDS011;13444;50.562;7.262;2023-12-28T04:42:35;3.63;;;2.20;;
25549;SDS011;13444;50.562;7.262;2023-12-28T04:45:01;4.60;;;2.22;;
25549;SDS011;13444;50.562;7.262;2023-12-28T04:47:26;2.30;;;1.85;;
25549;SDS011;13444;50.562;7.262;2023-12-28T04:49:52;3.88;;;1.90;;
25549;SDS011;13444;50.562;7.262;2023-12-28T04:52:18;3.28;;;2.15;;
25549;SDS011;13444;50.562;7.262;2023-12-28T04:54:43;3.08;;;2.20;;
25549;SDS011;13444;50.562;7.262;2023-12-28T04:57:09;2.75;;;2.10;;
25549;SDS011;13444;50.562;7.262;2023-12-28T04:59:38;3.35;;;2.33;;
25549;SDS011;13444;50.562;7.262;2023-12-28T05:02:04;2.97;;;2.08;;
25549;SDS011;13444;50.562;7.262;2023-12-28T05:04:30;5.20;;;2.22;;
25549;SDS011;13444;50.562;7.262;2023-12-28T05:06:55;3.00;;;2.05;;
25549;SDS011;13444;50.562;7.262;2023-12-28T05:09:21;6.95;;;2.00;;
25549;SDS011;13444;50.562;7.262;2023-12-28T05:11:46;3.30;;;2.05;;
25549;SDS011;13444;50.562;7.262;2023-12-28T05:14:12;3.67;;;2.65;;
25549;SDS011;13444;50.562;7.262;2023-12-28T05:16:37;2.70;;;2.05;;
25549;SDS011;13444;50.562;7.262;2023-12-28T05:19:03;5.53;;;2.38;;
25549;SDS011;13444;50.562;7.262;2023-12-28T05:21:28;4.32;;;2.58;;
25549;SDS011;13444;50.562;7.262;2023-12-28T05:23:54;3.58;;;2.30;;
25549;SDS011;13444;50.562;7.262;2023-12-28T05:26:19;2.30;;;1.73;;
25549;SDS011;13444;50.562;7.262;2023-12-28T05:28:45;2.50;;;1.88;;
25549;SDS011;13444;50.562;7.262;2023-12-28T05:31:10;3.35;;;2.05;;
25549;SDS011;13444;50.562;7.262;2023-12-28T05:33:36;3.10;;;1.90;;
25549;SDS011;13444;50.562;7.262;2023-12-28T05:36:01;3.22;;;2.03;;
25549;SDS011;13444;50.562;7.262;2023-12-28T05:38:27;3.67;;;1.98;;
25549;SDS011;13444;50.562;7.262;2023-12-28T05:40:52;3.10;;;2.03;;
25549;SDS011;13444;50.562;7.262;2023-12-28T05:43:18;4.00;;;2.15;;
25549;SDS011;13444;50.562;7.262;2023-12-28T05:45:43;4.00;;;2.17;;
25549;SDS011;13444;50.562;7.262;2023-12-28T05:48:09;5.65;;;2.25;;
25549;SDS011;13444;50.562;7.262;2023-12-28T05:50:35;4.63;;;2.10;;
25549;SDS011;13444;50.562;7.262;2023-12-28T05:53:00;3.85;;;1.92;;
25549;SDS011;13444;50.562;7.262;2023-12-28T05:55:26;5.38;;;2.53;;
25549;SDS011;13444;50.562;7.262;2023-12-28T05:57:51;6.68;;;2.20;;
25549;SDS011;13444;50.562;7.262;2023-12-28T06:00:17;4.30;;;2.53;;
25549;SDS011;13444;50.562;7.262;2023-12-28T06:02:43;4.40;;;2.10;;
25549;SDS011;13444;50.562;7.262;2023-12-28T06:05:08;5.30;;;2.38;;
25549;SDS011;13444;50.562;7.262;2023-12-28T06:07:34;5.40;;;2.00;;
25549;SDS011;13444;50.562;7.262;2023-12-28T06:09:59;5.00;;;2.50;;
25549;SDS011;13444;50.562;7.262;2023-12-28T06:12:25;4.22;;;2.28;;
25549;SDS011;13444;50.562;7.262;2023-12-28T06:14:50;3.08;;;2.28;;
25549;SDS011;13444;50.562;7.262;2023-12-28T06:17:16;6.88;;;2.03;;
25549;SDS011;13444;50.562;7.262;2023-12-28T06:19:43;4.78;;;2.17;;
25549;SDS011;13444;50.562;7.262;2023-12-28T06:22:09;4.57;;;2.13;;
25549;SDS011;13444;50.562;7.262;2023-12-28T06:24:37;4.20;;;1.73;;
25549;SDS011;13444;50.562;7.262;2023-12-28T06:27:04;4.07;;;2.10;;
25549;SDS011;13444;50.562;7.262;2023-12-28T06:29:29;4.78;;;1.90;;
25549;SDS011;13444;50.562;7.262;2023-12-28T06:31:55;4.05;;;1.95;;
25549;SDS011;13444;50.562;7.262;2023-12-28T06:34:20;3.80;;;1.60;;
25549;SDS011;13444;50.562;7.262;2023-12-28T06:36:46;5.38;;;1.75;;
25549;SDS011;13444;50.562;7.262;2023-12-28T06:39:12;3.78;;;2.20;;
25549;SDS011;13444;50.562;7.262;2023-12-28T06:41:37;3.28;;;1.90;;
25549;SDS011;13444;50.562;7.262;2023-12-28T06:44:03;3.67;;;2.00;;
25549;SDS011;13444;50.562;7.262;2023-12-28T06:46:28;2.42;;;2.00;;
25549;SDS011;13444;50.562;7.262;2023-12-28T06:48:54;3.65;;;2.00;;
25549;SDS011;13444;50.562;7.262;2023-12-28T06:51:20;5.20;;;2.10;;
25549;SDS011;13444;50.562;7.262;2023-12-28T06:53:47;4.28;;;2.10;;
25549;SDS011;13444;50.562;7.262;2023-12-28T06:56:13;3.85;;;1.90;;
25549;SDS011;13444;50.562;7.262;2023-12-28T06:58:39;3.60;;;2.13;;
25549;SDS011;13444;50.562;7.262;2023-12-28T07:01:05;5.07;;;1.77;;
25549;SDS011;13444;50.562;7.262;2023-12-28T07:03:34;3.92;;;1.88;;
25549;SDS011;13444;50.562;7.262;2023-12-28T07:06:00;3.13;;;1.65;;
25549;SDS011;13444;50.562;7.262;2023-12-28T07:08:25;4.32;;;1.90;;
25549;SDS011;13444;50.562;7.262;2023-12-28T07:10:51;3.70;;;1.90;;
25549;SDS011;13444;50.562;7.262;2023-12-28T07:13:17;3.10;;;1.55;;
25549;SDS011;13444;50.562;7.262;2023-12-28T07:15:42;5.25;;;1.35;;
25549;SDS011;13444;50.562;7.262;2023-12-28T07:18:08;2.25;;;1.60;;
25549;SDS011;13444;50.562;7.262;2023-12-28T07:20:33;5.13;;;1.67;;
25549;SDS011;13444;50.562;7.262;2023-12-28T07:22:59;2.35;;;1.35;;
25549;SDS011;13444;50.562;7.262;2023-12-28T07:25:24;5.65;;;1.70;;
25549;SDS011;13444;50.562;7.262;2023-12-28T07:27:50;1.85;;;1.60;;
25549;SDS011;13444;50.562;7.262;2023-12-28T07:30:16;3.75;;;2.00;;
25549;SDS011;13444;50.562;7.262;2023-12-28T07:32:42;3.28;;;1.75;;
25549;SDS011;13444;50.562;7.262;2023-12-28T07:35:08;6.10;;;1.85;;
25549;SDS011;13444;50.562;7.262;2023-12-28T07:37:34;4.30;;;1.77;;
25549;SDS011;13444;50.562;7.262;2023-12-28T07:40:00;4.35;;;1.60;;
25549;SDS011;13444;50.562;7.262;2023-12-28T07:42:26;5.03;;;2.10;;
25549;SDS011;13444;50.562;7.262;2023-12-28T07:44:52;2.85;;;1.55;;
25549;SDS011;13444;50.562;7.262;2023-12-28T07:47:18;3.42;;;1.52;;
25549;SDS011;13444;50.562;7.262;2023-12-28T07:49:43;3.42;;;1.60;;
25549;SDS011;13444;50.562;7.262;2023-12-28T07:52:09;2.67;;;1.63;;
25549;SDS011;13444;50.562;7.262;2023-12-28T07:54:34;5.50;;;1.50;;
25549;SDS011;13444;50.562;7.262;2023-12-28T07:57:00;3.53;;;1.80;;
25549;SDS011;13444;50.562;7.262;2023-12-28T07:59:25;4.38;;;1.90;;
25549;SDS011;13444;50.562;7.262;2023-12-28T08:01:51;5.90;;;2.10;;
25549;SDS011;13444;50.562;7.262;2023-12-28T08:04:16;5.47;;;1.48;;
25549;SDS011;13444;50.562;7.262;2023-12-28T08:06:42;6.53;;;1.90;;
25549;SDS011;13444;50.562;7.262;2023-12-28T08:09:07;4.75;;;1.80;;
25549;SDS011;13444;50.562;7.262;2023-12-28T08:11:33;3.40;;;1.40;;
25549;SDS011;13444;50.562;7.262;2023-12-28T08:13:59;4.63;;;1.80;;
25549;SDS011;13444;50.562;7.262;2023-12-28T08:16:25;6.32;;;1.88;;
25549;SDS011;13444;50.562;7.262;2023-12-28T08:18:51;5.07;;;1.80;;
25549;SDS011;13444;50.562;7.262;2023-12-28T08:21:17;5.38;;;1.50;;
25549;SDS011;13444;50.562;7.262;2023-12-28T08:23:42;4.93;;;1.55;;
25549;SDS011;13444;50.562;7.262;2023-12-28T08:26:08;4.45;;;1.50;;
25549;SDS011;13444;50.562;7.262;2023-12-28T08:28:35;2.50;;;1.48;;
25549;SDS011;13444;50.562;7.262;2023-12-28T08:31:00;5.47;;;2.10;;
25549;SDS011;13444;50.562;7.262;2023-12-28T08:33:26;7.53;;;1.77;;
25549;SDS011;13444;50.562;7.262;2023-12-28T08:35:51;4.43;;;1.40;;
25549;SDS011;13444;50.562;7.262;2023-12-28T08:38:17;4.18;;;1.65;;
25549;SDS011;13444;50.562;7.262;2023-12-28T08:40:42;2.90;;;1.58;;
25549;SDS011;13444;50.562;7.262;2023-12-28T08:43:09;5.93;;;1.92;;
25549;SDS011;13444;50.562;7.262;2023-12-28T08:45:35;6.93;;;2.00;;
25549;SDS011;13444;50.562;7.262;2023-12-28T08:48:01;3.95;;;1.63;;
25549;SDS011;13444;50.562;7.262;2023-12-28T08:50:26;7.65;;;1.88;;
25549;SDS011;13444;50.562;7.262;2023-12-28T08:52:52;5.18;;;1.95;;
25549;SDS011;13444;50.562;7.262;2023-12-28T08:55:17;5.75;;;1.50;;
25549;SDS011;13444;50.562;7.262;2023-12-28T08:57:43;4.50;;;1.58;;
25549;SDS011;13444;50.562;7.262;2023-12-28T09:00:08;5.82;;;1.70;;
25549;SDS011;13444;50.562;7.262;2023-12-28T09:02:35;4.65;;;1.80;;
25549;SDS011;13444;50.562;7.262;2023-12-28T09:05:00;4.30;;;1.75;;
25549;SDS011;13444;50.562;7.262;2023-12-28T09:07:26;3.60;;;1.40;;
25549;SDS011;13444;50.562;7.262;2023-12-28T09:09:52;3.97;;;1.48;;
25549;SDS011;13444;50.562;7.262;2023-12-28T09:12:17;5.35;;;1.63;;
25549;SDS011;13444;50.562;7.262;2023-12-28T09:14:43;5.32;;;1.92;;
25549;SDS011;13444;50.562;7.262;2023-12-28T09:17:08;4.43;;;1.50;;
25549;SDS011;13444;50.562;7.262;2023-12-28T09:19:34;3.35;;;1.65;;
25549;SDS011;13444;50.562;7.262;2023-12-28T09:22:00;3.20;;;1.55;;
25549;SDS011;13444;50.562;7.262;2023-12-28T09:24:25;6.80;;;1.58;;
25549;SDS011;13444;50.562;7.262;2023-12-28T09:26:50;3.65;;;1.80;;
25549;SDS011;13444;50.562;7.262;2023-12-28T09:29:16;5.13;;;1.70;;
25549;SDS011;13444;50.562;7.262;2023-12-28T09:31:42;3.42;;;1.45;;
25549;SDS011;13444;50.562;7.262;2023-12-28T09:34:07;2.95;;;1.63;;
25549;SDS011;13444;50.562;7.262;2023-12-28T09:36:33;4.55;;;1.13;;
25549;SDS011;13444;50.562;7.262;2023-12-28T09:38:58;4.32;;;1.45;;
25549;SDS011;13444;50.562;7.262;2023-12-28T09:41:25;4.30;;;1.40;;
25549;SDS011;13444;50.562;7.262;2023-12-28T09:44:08;3.40;;;1.40;;
25549;SDS011;13444;50.562;7.262;2023-12-28T09:46:36;3.88;;;1.40;;
25549;SDS011;13444;50.562;7.262;2023-12-28T09:49:03;4.20;;;1.60;;
25549;SDS011;13444;50.562;7.262;2023-12-28T09:51:29;3.63;;;1.20;;
25549;SDS011;13444;50.562;7.262;2023-12-28T09:53:55;3.60;;;1.60;;
25549;SDS011;13444;50.562;7.262;2023-12-28T09:56:22;3.15;;;1.40;;
25549;SDS011;13444;50.562;7.262;2023-12-28T09:58:48;5.03;;;1.58;;
25549;SDS011;13444;50.562;7.262;2023-12-28T10:01:15;3.50;;;1.48;;
25549;SDS011;13444;50.562;7.262;2023-12-28T10:03:43;5.85;;;1.75;;
25549;SDS011;13444;50.562;7.262;2023-12-28T10:06:08;2.97;;;1.52;;
25549;SDS011;13444;50.562;7.262;2023-12-28T10:08:34;5.63;;;1.30;;
25549;SDS011;13444;50.562;7.262;2023-12-28T10:11:01;5.03;;;1.52;;
25549;SDS011;13444;50.562;7.262;2023-12-28T10:13:28;5.97;;;1.42;;
25549;SDS011;13444;50.562;7.262;2023-12-28T10:15:57;5.95;;;1.40;;
25549;SDS011;13444;50.562;7.262;2023-12-28T10:18:23;2.55;;;1.25;;
25549;SDS011;13444;50.562;7.262;2023-12-28T10:20:50;5.75;;;1.83;;
25549;SDS011;13444;50.562;7.262;2023-12-28T10:23:16;6.82;;;1.27;;
25549;SDS011;13444;50.562;7.262;2023-12-28T10:25:43;5.03;;;1.52;;
25549;SDS011;13444;50.562;7.262;2023-12-28T10:28:09;5.32;;;1.45;;
25549;SDS011;13444;50.562;7.262;2023-12-28T10:30:37;5.03;;;1.45;;
25549;SDS011;13444;50.562;7.262;2023-12-28T10:33:06;4.60;;;1.50;;
25549;SDS011;13444;50.562;7.262;2023-12-28T10:35:32;4.43;;;1.55;;
25549;SDS011;13444;50.562;7.262;2023-12-28T10:37:59;3.92;;;1.52;;
25549;SDS011;13444;50.562;7.262;2023-12-28T10:40:25;4.60;;;2.10;;
25549;SDS011;13444;50.562;7.262;2023-12-28T10:45:19;6.55;;;1.92;;
25549;SDS011;13444;50.562;7.262;2023-12-28T10:48:05;6.82;;;1.98;;
25549;SDS011;13444;50.562;7.262;2023-12-28T10:53:38;3.55;;;1.73;;
25549;SDS011;13444;50.562;7.262;2023-12-28T10:56:33;6.47;;;1.88;;
25549;SDS011;13444;50.562;7.262;2023-12-28T10:59:30;8.38;;;1.90;;
25549;SDS011;13444;50.562;7.262;2023-12-28T11:02:06;3.22;;;1.33;;
25549;SDS011;13444;50.562;7.262;2023-12-28T11:04:40;6.57;;;1.38;;
25549;SDS011;13444;50.562;7.262;2023-12-28T11:07:08;6.90;;;1.85;;
25549;SDS011;13444;50.562;7.262;2023-12-28T11:09:35;3.20;;;1.52;;
25549;SDS011;13444;50.562;7.262;2023-12-28T11:12:02;3.30;;;1.45;;
25549;SDS011;13444;50.562;7.262;2023-12-28T11:14:31;6.43;;;1.70;;
25549;SDS011;13444;50.562;7.262;2023-12-28T11:16:59;8.40;;;2.17;;
25549;SDS011;13444;50.562;7.262;2023-12-28T11:19:25;3.83;;;1.48;;
25549;SDS011;13444;50.562;7.262;2023-12-28T11:21:52;6.82;;;1.60;;
25549;SDS011;13444;50.562;7.262;2023-12-28T11:24:18;7.22;;;1.60;;
25549;SDS011;13444;50.562;7.262;2023-12-28T11:26:44;5.00;;;1.40;;
25549;SDS011;13444;50.562;7.262;2023-12-28T11:29:18;7.05;;;1.67;;
25549;SDS011;13444;50.562;7.262;2023-12-28T11:31:44;9.30;;;1.92;;
25549;SDS011;13444;50.562;7.262;2023-12-28T11:34:15;5.40;;;1.60;;
25549;SDS011;13444;50.562;7.262;2023-12-28T11:36:49;7.90;;;1.42;;
25549;SDS011;13444;50.562;7.262;2023-12-28T11:39:19;4.18;;;1.70;;
25549;SDS011;13444;50.562;7.262;2023-12-28T11:41:51;5.95;;;1.55;;
25549;SDS011;13444;50.562;7.262;2023-12-28T11:44:26;5.13;;;1.98;;
25549;SDS011;13444;50.562;7.262;2023-12-28T11:46:51;4.68;;;1.35;;
25549;SDS011;13444;50.562;7.262;2023-12-28T11:49:17;3.60;;;1.52;;
25549;SDS011;13444;50.562;7.262;2023-12-28T11:51:56;3.63;;;1.33;;
25549;SDS011;13444;50.562;7.262;2023-12-28T11:54:24;6.03;;;1.42;;
25549;SDS011;13444;50.562;7.262;2023-12-28T11:56:50;4.53;;;1.50;;
25549;SDS011;13444;50.562;7.262;2023-12-28T11:59:16;3.72;;;1.20;;
25549;SDS011;13444;50.562;7.262;2023-12-28T12:01:41;5.45;;;1.92;;
25549;SDS011;13444;50.562;7.262;2023-12-28T12:04:07;7.70;;;1.65;;
25549;SDS011;13444;50.562;7.262;2023-12-28T12:06:32;6.13;;;1.67;;
25549;SDS011;13444;50.562;7.262;2023-12-28T12:08:58;5.18;;;1.50;;
25549;SDS011;13444;50.562;7.262;2023-12-28T12:11:24;5.90;;;1.80;;
25549;SDS011;13444;50.562;7.262;2023-12-28T12:13:51;6.70;;;1.77;;
25549;SDS011;13444;50.562;7.262;2023-12-28T12:16:16;4.97;;;1.88;;
25549;SDS011;13444;50.562;7.262;2023-12-28T12:18:42;6.38;;;1.63;;
25549;SDS011;13444;50.562;7.262;2023-12-28T12:21:08;5.45;;;1.58;;
25549;SDS011;13444;50.562;7.262;2023-12-28T12:23:33;4.60;;;1.48;;
25549;SDS011;13444;50.562;7.262;2023-12-28T12:25:59;9.35;;;2.00;;
25549;SDS011;13444;50.562;7.262;2023-12-28T12:28:25;8.32;;;1.77;;
25549;SDS011;13444;50.562;7.262;2023-12-28T12:30:52;4.13;;;1.38;;
25549;SDS011;13444;50.562;7.262;2023-12-28T12:33:21;6.40;;;1.85;;
25549;SDS011;13444;50.562;7.262;2023-12-28T12:35:47;6.25;;;1.63;;
25549;SDS011;13444;50.562;7.262;2023-12-28T12:38:13;6.10;;;1.80;;
25549;SDS011;13444;50.562;7.262;2023-12-28T12:40:39;6.32;;;1.33;;
25549;SDS011;13444;50.562;7.262;2023-12-28T12:43:05;3.08;;;1.52;;
25549;SDS011;13444;50.562;7.262;2023-12-28T12:45:34;8.68;;;1.45;;
25549;SDS011;13444;50.562;7.262;2023-12-28T12:48:00;5.13;;;1.45;;
25549;SDS011;13444;50.562;7.262;2023-12-28T12:50:26;3.88;;;1.30;;
25549;SDS011;13444;50.562;7.262;2023-12-28T12:52:52;4.50;;;1.60;;
25549;SDS011;13444;50.562;7.262;2023-12-28T12:55:17;3.97;;;1.27;;
25549;SDS011;13444;50.562;7.262;2023-12-28T12:57:43;10.07;;;1.45;;
25549;SDS011;13444;50.562;7.262;2023-12-28T13:00:10;6.22;;;1.80;;
25549;SDS011;13444;50.562;7.262;2023-12-28T13:02:36;5.25;;;1.60;;
25549;SDS011;13444;50.562;7.262;2023-12-28T13:05:02;4.40;;;1.73;;
25549;SDS011;13444;50.562;7.262;2023-12-28T13:07:29;4.93;;;1.30;;
25549;SDS011;13444;50.562;7.262;2023-12-28T13:09:56;9.00;;;1.85;;
25549;SDS011;13444;50.562;7.262;2023-12-28T13:12:21;4.90;;;1.40;;
25549;SDS011;13444;50.562;7.262;2023-12-28T13:14:47;5.05;;;1.55;;
25549;SDS011;13444;50.562;7.262;2023-12-28T13:17:12;5.65;;;1.35;;
25549;SDS011;13444;50.562;7.262;2023-12-28T13:19:38;6.15;;;1.75;;
25549;SDS011;13444;50.562;7.262;2023-12-28T13:22:04;6.90;;;1.77;;
25549;SDS011;13444;50.562;7.262;2023-12-28T13:24:30;3.58;;;1.20;;
25549;SDS011;13444;50.562;7.262;2023-12-28T13:26:56;8.43;;;1.95;;
25549;SDS011;13444;50.562;7.262;2023-12-28T13:29:22;4.00;;;1.30;;
25549;SDS011;13444;50.562;7.262;2023-12-28T13:31:47;4.57;;;1.40;;
25549;SDS011;13444;50.562;7.262;2023-12-28T13:34:15;8.30;;;1.70;;
25549;SDS011;13444;50.562;7.262;2023-12-28T13:36:41;5.32;;;1.60;;
25549;SDS011;13444;50.562;7.262;2023-12-28T13:39:06;3.25;;;1.23;;
25549;SDS011;13444;50.562;7.262;2023-12-28T13:41:36;4.68;;;1.40;;
25549;SDS011;13444;50.562;7.262;2023-12-28T13:44:02;4.97;;;1.70;;
25549;SDS011;13444;50.562;7.262;2023-12-28T13:46:29;4.45;;;1.30;;
25549;SDS011;13444;50.562;7.262;2023-12-28T13:48:56;5.65;;;1.50;;
25549;SDS011;13444;50.562;7.262;2023-12-28T13:51:22;5.22;;;1.60;;
25549;SDS011;13444;50.562;7.262;2023-12-28T13:53:47;6.15;;;1.63;;
25549;SDS011;13444;50.562;7.262;2023-12-28T13:56:13;7.13;;;1.42;;
25549;SDS011;13444;50.562;7.262;2023-12-28T13:58:39;4.53;;;1.30;;
25549;SDS011;13444;50.562;7.262;2023-12-28T14:01:04;7.40;;;1.80;;
25549;SDS011;13444;50.562;7.262;2023-12-28T14:03:30;6.72;;;1.73;;
25549;SDS011;13444;50.562;7.262;2023-12-28T14:05:55;5.97;;;1.63;;
25549;SDS011;13444;50.562;7.262;2023-12-28T14:08:21;9.45;;;1.80;;
25549;SDS011;13444;50.562;7.262;2023-12-28T14:10:46;7.22;;;2.67;;
25549;SDS011;13444;50.562;7.262;2023-12-28T14:13:12;6.82;;;1.60;;
25549;SDS011;13444;50.562;7.262;2023-12-28T14:15:37;5.03;;;1.50;;
25549;SDS011;13444;50.562;7.262;2023-12-28T14:18:03;6.85;;;1.98;;
25549;SDS011;13444;50.562;7.262;2023-12-28T14:20:30;4.85;;;1.70;;
25549;SDS011;13444;50.562;7.262;2023-12-28T14:22:56;4.63;;;1.70;;
25549;SDS011;13444;50.562;7.262;2023-12-28T14:25:22;4.78;;;1.55;;
25549;SDS011;13444;50.562;7.262;2023-12-28T14:27:48;4.40;;;1.52;;
25549;SDS011;13444;50.562;7.262;2023-12-28T14:30:14;5.68;;;1.90;;
25549;SDS011;13444;50.562;7.262;2023-12-28T14:32:40;5.70;;;1.83;;
25549;SDS011;13444;50.562;7.262;2023-12-28T14:35:06;5.53;;;1.67;;
25549;SDS011;13444;50.562;7.262;2023-12-28T14:37:32;6.53;;;1.70;;
25549;SDS011;13444;50.562;7.262;2023-12-28T14:39:58;7.97;;;1.65;;
25549;SDS011;13444;50.562;7.262;2023-12-28T14:42:23;4.38;;;1.48;;
25549;SDS011;13444;50.562;7.262;2023-12-28T14:44:49;4.75;;;1.70;;
25549;SDS011;13444;50.562;7.262;2023-12-28T14:47:16;4.80;;;1.70;;
25549;SDS011;13444;50.562;7.262;2023-12-28T14:49:41;5.07;;;1.10;;
25549;SDS011;13444;50.562;7.262;2023-12-28T14:52:09;4.80;;;1.83;;
25549;SDS011;13444;50.562;7.262;2023-12-28T14:54:35;7.95;;;1.65;;